Time;durP1;ratioP1;P1;durP2;ratioP2;P2;SDS_P1;SDS_P2;PMS_P1;PMS_P2;Temp;Humidity;BMP_temperature;BMP_pressure;BME280_temperature;BME280_humidity;BME280_pressure;Samples;Min_cycle;Max_cycle;Signal;HPM_P1;HPM_P2
2023/03/25 00:00:16;;;;;;;3.53;0.88;;;9.00;68.10;;;;;;5032939;28;20033;-73
2023/03/25 00:02:47;;;;;;;7.28;1.23;;;8.90;68.50;;;;;;5031587;28;20561;-75
2023/03/25 00:05:13;;;;;;;4.80;1.23;;;8.90;67.20;;;;;;5032925;28;20025;-75
2023/03/25 00:07:40;;;;;;;7.50;1.60;;;9.00;66.80;;;;;;5031302;28;20024;-74
2023/03/25 00:10:07;;;;;;;4.85;0.93;;;8.90;67.20;;;;;;5031623;28;20037;-74
2023/03/25 00:12:33;;;;;;;3.35;1.08;;;8.90;67.40;;;;;;5031716;28;20026;-75
2023/03/25 00:14:59;;;;;;;7.45;1.33;;;8.90;66.80;;;;;;5031241;28;20079;-75
2023/03/25 00:17:27;;;;;;;6.93;1.40;;;8.90;67.00;;;;;;5031499;28;20028;-74
2023/03/25 00:19:54;;;;;;;6.20;1.50;;;8.90;66.50;;;;;;5031381;28;20034;-74
2023/03/25 00:22:20;;;;;;;4.60;1.02;;;8.90;66.80;;;;;;5031499;28;20053;-74
2023/03/25 00:24:46;;;;;;;2.97;0.85;;;8.90;66.40;;;;;;5031682;28;20201;-73
2023/03/25 00:27:13;;;;;;;5.97;1.30;;;8.90;65.60;;;;;;5031390;28;20068;-75
2023/03/25 00:29:40;;;;;;;6.10;1.60;;;8.90;66.50;;;;;;5031657;28;20394;-75
2023/03/25 00:32:06;;;;;;;6.13;1.40;;;8.90;67.70;;;;;;5031323;28;20025;-76
2023/03/25 00:34:34;;;;;;;4.47;0.93;;;8.90;70.20;;;;;;5031357;28;20075;-76
2023/03/25 00:37:01;;;;;;;4.43;1.23;;;8.70;74.50;;;;;;5031863;28;20419;-76
2023/03/25 00:39:27;;;;;;;1.35;0.70;;;8.50;75.80;;;;;;5031329;28;20088;-75
2023/03/25 00:41:53;;;;;;;7.53;0.90;;;8.00;78.50;;;;;;5034344;28;20116;-75
2023/03/25 00:44:18;;;;;;;3.72;0.95;;;7.70;79.80;;;;;;5035279;28;20579;-74
2023/03/25 00:46:45;;;;;;;3.05;0.77;;;7.60;80.70;;;;;;5035083;28;20025;-76
2023/03/25 00:49:11;;;;;;;2.33;0.60;;;7.60;80.90;;;;;;5035204;28;20121;-75
2023/03/25 00:51:37;;;;;;;2.78;0.77;;;7.60;80.80;;;;;;5035227;28;20462;-73
2023/03/25 00:54:03;;;;;;;5.55;1.08;;;7.70;81.30;;;;;;5034961;28;20035;-73
2023/03/25 00:56:30;;;;;;;2.95;0.80;;;7.70;80.70;;;;;;5034941;28;20048;-73
2023/03/25 00:58:56;;;;;;;3.35;0.80;;;7.80;79.80;;;;;;5035210;28;20391;-73
2023/03/25 01:01:26;;;;;;;5.93;1.52;;;7.90;80.10;;;;;;5035026;28;20026;-73
2023/03/25 01:03:59;;;;;;;3.65;0.93;;;7.90;79.70;;;;;;5034604;28;20026;-73
2023/03/25 01:06:33;;;;;;;5.10;1.20;;;8.00;79.20;;;;;;5034984;28;20025;-73
2023/03/25 01:09:00;;;;;;;4.85;1.05;;;8.00;78.90;;;;;;5034731;28;20025;-72
2023/03/25 01:11:30;;;;;;;2.83;0.75;;;7.90;79.80;;;;;;5034641;28;20092;-74
2023/03/25 01:13:58;;;;;;;3.88;1.00;;;8.00;80.40;;;;;;5034488;28;20025;-74
2023/03/25 01:16:24;;;;;;;2.85;0.80;;;8.00;80.50;;;;;;5034422;28;20500;-73
2023/03/25 01:18:50;;;;;;;4.13;0.90;;;8.00;80.80;;;;;;5035814;28;20030;-73
2023/03/25 01:21:16;;;;;;;2.35;0.73;;;8.00;81.10;;;;;;5035485;28;20029;-73
2023/03/25 01:23:41;;;;;;;4.55;0.95;;;8.00;80.90;;;;;;5034681;28;20033;-74
2023/03/25 01:26:07;;;;;;;3.33;1.00;;;8.00;81.10;;;;;;5035664;28;20025;-73
2023/03/25 01:28:33;;;;;;;3.50;0.98;;;8.00;81.10;;;;;;5034358;28;20569;-73
2023/03/25 01:31:07;;;;;;;5.35;1.42;;;8.00;81.20;;;;;;5034194;28;20091;-72
2023/03/25 01:33:33;;;;;;;4.28;0.98;;;8.00;81.20;;;;;;5034317;28;20172;-73
2023/03/25 01:35:59;;;;;;;2.92;1.30;;;8.00;81.40;;;;;;5035388;28;20029;-72
2023/03/25 01:38:26;;;;;;;4.43;1.15;;;8.00;81.70;;;;;;5033774;28;20075;-73
2023/03/25 01:40:53;;;;;;;2.30;0.88;;;8.00;81.60;;;;;;5034198;28;20053;-73
2023/03/25 01:43:20;;;;;;;8.07;1.77;;;8.10;81.90;;;;;;5033861;28;20509;-73
2023/03/25 01:45:45;;;;;;;4.07;0.70;;;8.10;81.70;;;;;;5033955;28;20029;-73
2023/03/25 01:48:15;;;;;;;1.23;0.40;;;7.90;82.30;;;;;;5033812;28;20383;-73
2023/03/25 01:50:47;;;;;;;1.48;0.45;;;7.60;78.40;;;;;;5033838;28;20037;-73
2023/03/25 01:53:12;;;;;;;1.85;0.20;;;7.40;79.60;;;;;;5033509;28;20025;-73
2023/03/25 01:55:39;;;;;;;2.85;0.52;;;7.20;80.00;;;;;;5033691;28;20036;-73
2023/03/25 01:58:10;;;;;;;3.70;0.70;;;7.00;81.20;;;;;;5033935;28;20064;-74
2023/03/25 02:00:42;;;;;;;1.42;0.55;;;6.40;82.10;;;;;;5033872;28;20022;-72
2023/03/25 02:03:10;;;;;;;3.42;0.75;;;6.20;82.80;;;;;;5033511;28;20025;-74
2023/03/25 02:05:52;;;;;;;0.90;0.40;;;6.10;83.60;;;;;;5033553;28;20073;-73
2023/03/25 02:08:20;;;;;;;0.50;0.10;;;6.10;83.60;;;;;;5033427;28;20417;-73
2023/03/25 02:10:46;;;;;;;0.43;0.20;;;6.10;84.00;;;;;;5033036;28;20067;-73
2023/03/25 02:13:13;;;;;;;1.30;0.28;;;6.10;83.10;;;;;;5034588;28;20101;-73
2023/03/25 02:15:45;;;;;;;0.63;0.30;;;6.20;82.60;;;;;;5033457;28;20025;-73
2023/03/25 02:18:25;;;;;;;0.65;0.20;;;6.30;82.70;;;;;;5034623;28;20356;-72
2023/03/25 02:21:27;;;;;;;2.90;0.40;;;6.30;81.40;;;;;;5034267;28;20543;-72
2023/03/25 02:24:13;;;;;;;3.90;0.60;;;6.50;81.20;;;;;;5034437;28;20057;-73
2023/03/25 02:26:48;;;;;;;2.40;0.75;;;6.70;81.20;;;;;;5034265;28;20025;-73
2023/03/25 02:29:28;;;;;;;3.45;0.68;;;6.80;80.00;;;;;;5033125;28;20029;-72
2023/03/25 02:32:19;;;;;;;3.28;0.63;;;6.90;79.70;;;;;;5033349;28;20481;-72
2023/03/25 02:35:06;;;;;;;6.55;0.77;;;7.00;79.60;;;;;;5032994;28;20025;-72
2023/03/25 02:37:57;;;;;;;2.28;0.77;;;7.10;80.40;;;;;;5032827;28;20029;-72
2023/03/25 02:40:33;;;;;;;3.22;0.50;;;7.30;79.60;;;;;;5032867;28;20041;-72
2023/03/25 02:43:13;;;;;;;2.05;0.57;;;7.30;80.80;;;;;;5032808;28;20029;-73
2023/03/25 02:45:53;;;;;;;0.63;0.28;;;7.40;81.10;;;;;;5033041;28;20489;-73
2023/03/25 02:48:26;;;;;;;4.70;0.82;;;7.40;81.10;;;;;;5032521;28;20478;-72
2023/03/25 02:50:56;;;;;;;6.55;1.13;;;7.20;79.70;;;;;;5032839;28;20038;-72
2023/03/25 02:53:27;;;;;;;5.57;0.75;;;7.20;79.40;;;;;;5032761;28;20025;-72
2023/03/25 02:55:58;;;;;;;4.78;0.98;;;7.10;80.10;;;;;;5032602;28;20029;-73
2023/03/25 02:58:26;;;;;;;4.88;0.93;;;6.90;79.80;;;;;;5032291;28;20053;-72
2023/03/25 03:00:57;;;;;;;4.13;0.68;;;6.90;77.80;;;;;;5032733;28;20036;-73
2023/03/25 03:03:23;;;;;;;3.85;0.60;;;7.00;78.20;;;;;;5031834;28;20474;-72
2023/03/25 03:05:51;;;;;;;4.03;0.75;;;6.90;78.30;;;;;;5032627;28;20025;-72
2023/03/25 03:08:38;;;;;;;4.82;0.80;;;6.90;79.40;;;;;;5032598;28;20026;-72
2023/03/25 03:11:27;;;;;;;4.57;0.95;;;6.90;79.20;;;;;;5032474;28;20037;-72
2023/03/25 03:14:12;;;;;;;4.32;0.90;;;6.90;79.30;;;;;;5032614;28;20025;-73
2023/03/25 03:17:02;;;;;;;4.68;1.00;;;7.00;79.60;;;;;;5032215;28;20079;-72
2023/03/25 03:19:54;;;;;;;3.45;0.65;;;6.90;78.90;;;;;;5033726;28;20076;-73
2023/03/25 03:22:41;;;;;;;4.25;0.93;;;6.90;78.50;;;;;;5032352;28;20026;-72
2023/03/25 03:25:12;;;;;;;3.35;0.90;;;7.00;78.20;;;;;;5032131;28;20039;-71
2023/03/25 03:28:06;;;;;;;3.53;0.70;;;7.00;78.40;;;;;;5032037;28;20056;-72
2023/03/25 03:30:54;;;;;;;3.00;0.77;;;7.10;78.70;;;;;;5026830;28;20041;-72
2023/03/25 03:33:41;;;;;;;5.63;1.35;;;7.10;78.30;;;;;;5032290;28;20018;-72
2023/03/25 03:36:12;;;;;;;1.73;0.50;;;7.10;78.20;;;;;;5032173;28;20116;-72
2023/03/25 03:39:00;;;;;;;3.40;0.82;;;7.10;78.10;;;;;;5031906;28;20041;-72
2023/03/25 03:41:27;;;;;;;4.00;0.90;;;7.10;78.30;;;;;;5033347;28;20501;-72
2023/03/25 03:43:58;;;;;;;4.78;0.90;;;7.10;78.80;;;;;;5031834;28;20037;-73
2023/03/25 03:46:40;;;;;;;5.60;0.68;;;7.10;78.10;;;;;;5031739;28;20025;-73
2023/03/25 03:49:11;;;;;;;6.88;0.85;;;7.10;78.20;;;;;;5032097;28;20409;-73
2023/03/25 03:51:42;;;;;;;5.20;0.65;;;7.20;77.80;;;;;;5032003;28;20025;-73
2023/03/25 03:54:20;;;;;;;2.63;0.82;;;7.20;76.30;;;;;;5031500;28;20068;-73
2023/03/25 03:57:04;;;;;;;4.05;0.95;;;7.20;76.10;;;;;;5031575;28;20381;-77
2023/03/25 03:59:41;;;;;;;3.33;0.77;;;7.20;75.00;;;;;;5033007;28;20075;-73
2023/03/25 04:02:15;;;;;;;3.67;0.85;;;7.20;75.60;;;;;;5031909;28;20117;-73
2023/03/25 04:04:41;;;;;;;3.17;0.77;;;7.20;75.00;;;;;;5031579;28;20476;-73
2023/03/25 04:07:13;;;;;;;4.28;0.70;;;7.20;74.60;;;;;;5032826;28;20022;-74
2023/03/25 04:09:44;;;;;;;5.93;0.95;;;7.20;75.30;;;;;;5032755;28;20057;-74
2023/03/25 04:12:26;;;;;;;3.90;1.10;;;7.10;75.00;;;;;;5031664;28;20494;-73
2023/03/25 04:14:53;;;;;;;3.38;0.80;;;7.10;75.00;;;;;;5033129;28;20033;-73
2023/03/25 04:17:19;;;;;;;3.47;0.90;;;7.10;75.00;;;;;;5035483;28;20028;-73
2023/03/25 04:19:47;;;;;;;3.45;0.93;;;7.10;74.90;;;;;;5035818;28;20025;-73
2023/03/25 04:22:16;;;;;;;5.50;1.00;;;7.10;74.90;;;;;;5035780;28;20022;-73
2023/03/25 04:24:42;;;;;;;3.20;1.27;;;7.00;75.00;;;;;;5035819;28;20025;-72
2023/03/25 04:27:12;;;;;;;2.28;0.80;;;7.10;74.90;;;;;;5035821;28;20061;-73
2023/03/25 04:29:39;;;;;;;6.65;1.27;;;7.00;75.30;;;;;;5035491;28;20029;-73
2023/03/25 04:32:05;;;;;;;2.80;0.82;;;7.00;75.30;;;;;;5035146;28;20033;-73
2023/03/25 04:34:30;;;;;;;2.75;0.80;;;7.00;75.20;;;;;;5035449;28;20355;-73
2023/03/25 04:36:56;;;;;;;3.63;0.60;;;7.00;75.10;;;;;;5035565;28;20032;-73
2023/03/25 04:39:21;;;;;;;3.88;0.90;;;6.90;75.40;;;;;;5035477;28;20073;-74
2023/03/25 04:42:02;;;;;;;3.10;0.80;;;7.00;75.00;;;;;;5035130;28;20033;-73
2023/03/25 04:44:28;;;;;;;3.13;0.60;;;6.90;74.20;;;;;;5035152;28;20117;-73
2023/03/25 04:46:57;;;;;;;4.43;0.80;;;6.90;74.40;;;;;;5035268;28;20116;-73
2023/03/25 04:49:23;;;;;;;3.28;0.60;;;6.90;74.10;;;;;;5034988;28;20120;-73
2023/03/25 04:51:50;;;;;;;4.60;0.90;;;6.90;74.00;;;;;;5035276;28;20386;-73
2023/03/25 04:54:20;;;;;;;4.28;0.95;;;6.80;73.50;;;;;;5035311;28;20378;-72
2023/03/25 04:56:48;;;;;;;5.95;1.00;;;6.80;72.30;;;;;;5036055;28;20025;-73
2023/03/25 04:59:14;;;;;;;3.58;0.80;;;6.90;72.20;;;;;;5036718;28;20079;-74
2023/03/25 05:01:41;;;;;;;5.28;0.98;;;6.80;72.40;;;;;;5039513;28;20022;-73
2023/03/25 05:04:11;;;;;;;6.18;1.20;;;6.90;72.40;;;;;;5035399;28;20045;-74
2023/03/25 05:06:38;;;;;;;6.50;1.27;;;6.90;72.30;;;;;;5035222;28;20414;-73
2023/03/25 05:09:05;;;;;;;8.65;1.40;;;6.90;72.00;;;;;;5034713;28;20021;-73
2023/03/25 05:11:33;;;;;;;8.63;1.40;;;6.80;71.60;;;;;;5034851;28;20486;-73
2023/03/25 05:13:59;;;;;;;6.93;1.10;;;6.80;72.50;;;;;;5034710;28;20026;-73
2023/03/25 05:16:25;;;;;;;4.22;1.17;;;6.80;71.60;;;;;;5034611;28;20032;-72
2023/03/25 05:18:51;;;;;;;7.50;1.40;;;6.80;72.00;;;;;;5034549;28;20033;-72
2023/03/25 05:21:16;;;;;;;10.43;1.73;;;6.80;71.40;;;;;;5034425;28;20091;-72
2023/03/25 05:23:42;;;;;;;5.30;0.95;;;6.80;71.30;;;;;;5034440;28;20549;-72
2023/03/25 05:26:08;;;;;;;7.72;1.02;;;6.80;70.90;;;;;;5033287;28;20036;-72
2023/03/25 05:28:34;;;;;;;5.72;0.98;;;7.00;70.50;;;;;;5034210;28;20029;-72
2023/03/25 05:31:00;;;;;;;5.20;1.00;;;7.00;70.40;;;;;;5034454;28;20041;-73
2023/03/25 05:33:26;;;;;;;4.60;1.38;;;6.90;70.50;;;;;;5034208;28;20060;-73
2023/03/25 05:35:51;;;;;;;6.35;1.73;;;6.90;71.20;;;;;;5034085;28;20029;-73
2023/03/25 05:38:17;;;;;;;6.72;1.58;;;6.90;71.00;;;;;;5034067;28;20052;-73
2023/03/25 05:40:47;;;;;;;5.20;1.00;;;7.00;71.00;;;;;;5034215;28;20029;-72
2023/03/25 05:43:13;;;;;;;6.45;1.30;;;7.00;71.30;;;;;;5034192;28;20018;-73
2023/03/25 05:45:40;;;;;;;5.82;1.27;;;6.90;71.20;;;;;;5033955;28;20386;-74
2023/03/25 05:48:07;;;;;;;3.70;1.00;;;6.90;72.50;;;;;;5033850;28;20386;-72
2023/03/25 05:50:33;;;;;;;5.25;0.82;;;6.80;74.40;;;;;;5033769;28;20045;-73
2023/03/25 05:52:58;;;;;;;3.20;1.10;;;6.80;73.40;;;;;;5033841;28;20117;-73
2023/03/25 05:55:24;;;;;;;4.53;0.95;;;6.70;75.80;;;;;;5033704;28;20144;-72
2023/03/25 05:57:50;;;;;;;8.90;1.42;;;6.80;74.10;;;;;;5033857;28;20029;-72
2023/03/25 06:00:20;;;;;;;3.53;1.15;;;6.80;74.40;;;;;;5033894;28;20030;-74
2023/03/25 06:02:47;;;;;;;6.90;1.25;;;6.80;73.70;;;;;;5033674;28;20120;-73
2023/03/25 06:05:14;;;;;;;5.82;1.25;;;6.80;74.10;;;;;;5033601;28;20029;-72
2023/03/25 06:07:47;;;;;;;3.10;1.10;;;6.80;74.40;;;;;;5033484;28;20117;-73
2023/03/25 06:10:15;;;;;;;4.03;0.93;;;6.70;74.60;;;;;;5033455;28;20075;-71
2023/03/25 06:12:42;;;;;;;7.78;1.30;;;6.70;74.90;;;;;;5034559;28;20033;-72
2023/03/25 06:15:09;;;;;;;2.47;0.70;;;6.70;74.50;;;;;;5033018;28;20028;-73
2023/03/25 06:17:38;;;;;;;4.47;0.70;;;6.70;74.40;;;;;;5033309;28;20029;-74
2023/03/25 06:20:09;;;;;;;7.00;1.25;;;6.80;74.50;;;;;;5032846;28;20389;-73
2023/03/25 06:22:41;;;;;;;1.95;0.70;;;6.80;74.40;;;;;;5033037;28;20025;-73
2023/03/25 06:25:07;;;;;;;4.25;1.80;;;6.70;75.50;;;;;;5033303;28;20482;-73
2023/03/25 06:27:33;;;;;;;5.10;1.08;;;6.70;75.80;;;;;;5033434;28;20029;-73
2023/03/25 06:30:02;;;;;;;6.85;1.25;;;6.70;76.20;;;;;;5032794;28;20278;-73
2023/03/25 06:32:28;;;;;;;3.92;1.02;;;6.70;76.30;;;;;;5032508;28;20167;-74
2023/03/25 06:34:53;;;;;;;2.00;0.75;;;6.70;75.50;;;;;;5032544;28;20083;-73
2023/03/25 06:37:20;;;;;;;3.53;1.85;;;6.70;76.20;;;;;;5032892;28;20021;-74
2023/03/25 06:39:48;;;;;;;2.72;0.75;;;6.70;77.00;;;;;;5033714;28;20041;-73
2023/03/25 06:42:14;;;;;;;2.78;0.52;;;6.70;77.00;;;;;;5032578;28;20025;-73
2023/03/25 06:44:40;;;;;;;2.63;0.63;;;6.60;76.50;;;;;;5033636;28;20057;-73
2023/03/25 06:47:05;;;;;;;3.47;0.32;;;6.70;76.60;;;;;;5033589;28;20060;-74
2023/03/25 06:49:31;;;;;;;2.58;0.60;;;6.70;75.90;;;;;;5033177;28;20037;-74
2023/03/25 06:51:57;;;;;;;3.67;0.50;;;6.70;76.40;;;;;;5033206;28;20052;-74
2023/03/25 06:54:23;;;;;;;1.67;0.50;;;6.70;75.80;;;;;;5033414;28;20022;-74
2023/03/25 06:56:48;;;;;;;3.55;0.52;;;6.70;76.40;;;;;;5033554;28;20083;-74
2023/03/25 06:59:14;;;;;;;4.95;0.85;;;6.80;77.00;;;;;;5032211;28;20025;-74
2023/03/25 07:01:40;;;;;;;2.10;0.50;;;6.70;76.50;;;;;;5033443;28;20033;-74
2023/03/25 07:04:05;;;;;;;1.52;0.50;;;6.80;76.50;;;;;;5033436;28;20148;-74
2023/03/25 07:06:31;;;;;;;0.77;0.43;;;6.80;76.30;;;;;;5033345;28;20494;-73
2023/03/25 07:08:57;;;;;;;1.23;0.60;;;6.70;75.70;;;;;;5033310;28;20025;-74
2023/03/25 07:11:27;;;;;;;2.72;0.40;;;6.80;76.40;;;;;;5032989;28;20088;-74
2023/03/25 07:13:53;;;;;;;3.65;0.50;;;6.80;76.50;;;;;;5033236;28;20059;-74
2023/03/25 07:16:20;;;;;;;1.17;0.40;;;6.80;76.30;;;;;;5033342;28;20492;-74
2023/03/25 07:18:46;;;;;;;0.88;0.20;;;6.80;75.40;;;;;;5033139;28;20466;-73
2023/03/25 07:21:11;;;;;;;0.52;0.30;;;6.90;75.80;;;;;;5033160;28;20037;-73
2023/03/25 07:23:37;;;;;;;0.45;0.20;;;7.00;76.30;;;;;;5033223;28;20040;-73
2023/03/25 07:26:02;;;;;;;1.00;0.30;;;7.10;76.00;;;;;;5033190;28;20378;-73
2023/03/25 07:28:28;;;;;;;1.05;0.20;;;7.20;75.40;;;;;;5033148;28;20037;-74
2023/03/25 07:30:54;;;;;;;1.08;0.30;;;7.30;75.60;;;;;;5031773;28;20084;-74
2023/03/25 07:33:19;;;;;;;1.45;0.60;;;7.30;75.30;;;;;;5031316;28;20025;-75
2023/03/25 07:35:45;;;;;;;1.10;0.50;;;7.30;75.00;;;;;;5033149;28;20018;-74
2023/03/25 07:38:11;;;;;;;0.82;0.10;;;7.40;75.20;;;;;;5032784;28;20083;-74
2023/03/25 07:40:36;;;;;;;2.72;0.68;;;7.30;74.40;;;;;;5032848;28;20025;-74
2023/03/25 07:43:03;;;;;;;1.50;0.40;;;7.30;75.50;;;;;;5032985;28;20486;-74
2023/03/25 07:45:28;;;;;;;2.42;0.50;;;7.30;74.40;;;;;;5031563;28;20026;-74
2023/03/25 07:47:54;;;;;;;2.40;0.47;;;7.40;74.90;;;;;;5031367;28;20040;-74
2023/03/25 07:50:21;;;;;;;1.83;0.38;;;7.50;74.00;;;;;;5031900;28;20463;-74
2023/03/25 07:52:46;;;;;;;2.85;0.70;;;7.60;74.80;;;;;;5031301;28;20125;-74
2023/03/25 07:55:13;;;;;;;2.47;0.50;;;7.60;73.70;;;;;;5031267;28;20526;-75
2023/03/25 07:57:42;;;;;;;6.05;0.95;;;7.70;73.40;;;;;;5031400;28;20471;-74
2023/03/25 08:00:09;;;;;;;1.55;0.35;;;7.70;74.30;;;;;;5031487;28;20077;-74
2023/03/25 08:02:35;;;;;;;2.05;0.43;;;7.70;74.40;;;;;;5031362;28;20497;-75
2023/03/25 08:05:01;;;;;;;1.83;0.55;;;7.60;75.40;;;;;;5031508;28;20053;-75
2023/03/25 08:07:27;;;;;;;5.85;0.70;;;7.60;75.00;;;;;;5032977;28;20025;-75
2023/03/25 08:09:53;;;;;;;1.23;0.40;;;7.40;75.70;;;;;;5031457;28;20107;-75
2023/03/25 08:12:19;;;;;;;1.67;0.43;;;7.40;77.60;;;;;;5031221;28;20037;-75
2023/03/25 08:14:45;;;;;;;2.72;0.70;;;7.30;76.40;;;;;;5031174;28;20112;-74
2023/03/25 08:17:10;;;;;;;2.42;0.93;;;7.30;77.10;;;;;;5032504;28;20072;-74
2023/03/25 08:19:36;;;;;;;4.05;1.02;;;7.30;77.80;;;;;;5032270;28;20055;-74
2023/03/25 08:22:02;;;;;;;1.67;0.50;;;7.30;76.30;;;;;;5032865;28;20027;-75
2023/03/25 08:24:28;;;;;;;2.65;0.50;;;7.50;75.50;;;;;;5032521;28;20060;-75
2023/03/25 08:26:55;;;;;;;1.88;0.43;;;7.50;75.80;;;;;;5031187;28;20021;-75
2023/03/25 08:29:20;;;;;;;1.35;0.40;;;7.60;76.10;;;;;;5032269;28;20087;-75
2023/03/25 08:31:50;;;;;;;1.00;0.38;;;7.70;74.80;;;;;;5031217;28;20030;-75
2023/03/25 08:34:18;;;;;;;1.35;0.40;;;7.60;74.00;;;;;;5032594;28;20113;-75
2023/03/25 08:36:44;;;;;;;3.58;0.50;;;7.50;75.20;;;;;;5032527;28;20061;-75
2023/03/25 08:39:11;;;;;;;2.05;0.50;;;7.50;75.00;;;;;;5031204;28;20509;-75
2023/03/25 08:41:37;;;;;;;1.88;0.70;;;7.50;74.90;;;;;;5032437;28;20485;-75
2023/03/25 08:44:04;;;;;;;2.30;0.50;;;7.60;75.00;;;;;;5031987;28;20025;-75
2023/03/25 08:46:30;;;;;;;2.95;0.50;;;7.60;74.50;;;;;;5030902;28;20025;-75
2023/03/25 08:48:55;;;;;;;1.60;0.57;;;7.70;75.60;;;;;;5032224;28;20505;-75
2023/03/25 08:51:21;;;;;;;2.60;0.52;;;7.80;75.20;;;;;;5032093;28;20041;-74
2023/03/25 08:53:47;;;;;;;1.77;0.70;;;8.00;74.40;;;;;;5030793;28;20478;-74
2023/03/25 08:56:13;;;;;;;2.22;0.60;;;8.10;73.50;;;;;;5030924;28;20065;-74
2023/03/25 08:58:38;;;;;;;3.75;1.00;;;8.20;73.20;;;;;;5030904;28;20116;-74
2023/03/25 09:01:05;;;;;;;2.78;0.68;;;8.20;71.70;;;;;;5032248;28;20123;-75
2023/03/25 09:03:32;;;;;;;0.93;0.60;;;8.20;72.40;;;;;;5034294;28;20021;-74
2023/03/25 09:05:57;;;;;;;0.93;0.50;;;8.30;73.10;;;;;;5034362;28;20057;-74
2023/03/25 09:08:23;;;;;;;1.48;0.38;;;8.40;72.40;;;;;;5035596;28;20118;-75
2023/03/25 09:10:49;;;;;;;1.55;0.52;;;8.40;71.70;;;;;;5035318;28;20037;-75
2023/03/25 09:13:15;;;;;;;1.35;0.40;;;8.70;70.50;;;;;;5033931;28;20033;-74
2023/03/25 09:15:41;;;;;;;2.05;0.60;;;8.70;70.90;;;;;;5034180;28;20036;-74
2023/03/25 09:18:06;;;;;;;2.13;0.40;;;8.80;69.20;;;;;;5035147;28;20028;-75
2023/03/25 09:20:32;;;;;;;1.00;0.30;;;8.90;68.50;;;;;;5033858;28;20026;-74
2023/03/25 09:22:58;;;;;;;3.08;0.40;;;8.80;68.90;;;;;;5034190;28;20021;-74
2023/03/25 09:25:24;;;;;;;3.25;1.10;;;8.90;67.80;;;;;;5035171;28;20030;-75
2023/03/25 09:27:50;;;;;;;1.33;0.50;;;8.80;69.50;;;;;;5035344;28;20018;-75
2023/03/25 09:30:16;;;;;;;2.30;0.88;;;8.70;70.60;;;;;;5035230;28;20433;-75
2023/03/25 09:32:43;;;;;;;3.42;0.52;;;8.60;71.80;;;;;;5033851;28;20064;-75
2023/03/25 09:35:09;;;;;;;2.88;0.88;;;8.50;73.50;;;;;;5033805;28;20017;-75
2023/03/25 09:37:34;;;;;;;4.63;0.80;;;8.30;72.10;;;;;;5036720;28;20021;-76
2023/03/25 09:40:00;;;;;;;2.42;0.75;;;8.30;72.00;;;;;;5036377;28;20034;-75
2023/03/25 09:43:04;;;;;;;2.30;0.50;;;8.20;72.10;;;;;;5036090;28;20529;-75
2023/03/25 09:45:33;;;;;;;2.83;0.80;;;8.10;71.00;;;;;;5034851;28;20025;-75
2023/03/25 09:48:25;;;;;;;2.83;0.70;;;8.20;71.20;;;;;;5033821;28;20040;-75
2023/03/25 09:50:51;;;;;;;2.92;0.70;;;8.30;71.90;;;;;;5034532;28;20056;-76
2023/03/25 09:53:32;;;;;;;1.85;0.55;;;8.30;70.70;;;;;;5033674;28;20466;-75
2023/03/25 09:55:59;;;;;;;1.23;0.50;;;8.30;70.70;;;;;;5034669;28;20037;-75
2023/03/25 09:58:32;;;;;;;3.70;0.70;;;8.40;71.80;;;;;;5034672;28;20139;-75
2023/03/25 10:01:12;;;;;;;2.83;0.68;;;8.60;70.90;;;;;;5034602;28;20021;-75
2023/03/25 10:04:19;;;;;;;1.17;0.70;;;8.80;69.40;;;;;;5034605;28;20053;-77
2023/03/25 10:07:15;;;;;;;3.45;1.08;;;9.50;68.10;;;;;;4985648;28;20102;-75
2023/03/25 10:09:46;;;;;;;1.40;0.65;;;10.00;64.80;;;;;;5030302;28;20033;-74
2023/03/25 10:12:24;;;;;;;0.93;0.25;;;9.90;62.80;;;;;;5034153;28;20057;-76
2023/03/25 10:15:27;;;;;;;2.22;0.75;;;10.00;62.00;;;;;;5034371;28;20024;-75
2023/03/25 10:17:55;;;;;;;0.98;0.40;;;10.20;62.30;;;;;;5034255;28;20025;-75
2023/03/25 10:20:35;;;;;;;8.15;4.38;;;10.40;60.80;;;;;;5034161;28;20017;-75
2023/03/25 10:23:10;;;;;;;1.50;0.90;;;10.20;60.70;;;;;;5034357;28;20025;-75
2023/03/25 10:25:40;;;;;;;1.60;0.52;;;10.20;60.50;;;;;;5034433;28;20112;-76
2023/03/25 10:28:10;;;;;;;2.65;1.27;;;10.00;60.80;;;;;;5032632;28;20067;-77
2023/03/25 10:30:45;;;;;;;2.08;1.23;;;9.80;61.50;;;;;;5033861;28;20040;-76
2023/03/25 10:33:30;;;;;;;0.80;0.40;;;9.70;62.90;;;;;;5030282;28;20029;-76
2023/03/25 10:35:58;;;;;;;1.70;0.40;;;9.60;63.00;;;;;;5033142;28;20034;-76
2023/03/25 10:38:24;;;;;;;1.92;0.28;;;9.50;63.10;;;;;;5032865;28;20093;-76
2023/03/25 10:41:11;;;;;;;1.75;0.32;;;9.50;61.90;;;;;;5032718;28;20120;-76
2023/03/25 10:43:40;;;;;;;2.80;0.20;;;9.60;62.00;;;;;;5033713;28;20052;-77
2023/03/25 10:46:06;;;;;;;1.38;0.30;;;9.70;61.10;;;;;;5032802;28;20390;-76
2023/03/25 10:48:32;;;;;;;0.88;0.20;;;9.70;59.90;;;;;;5032702;28;20036;-76
2023/03/25 10:51:14;;;;;;;0.17;0.15;;;9.60;61.00;;;;;;5015828;28;20042;-76
2023/03/25 10:53:41;;;;;;;1.92;0.30;;;9.50;61.50;;;;;;5032500;28;20470;-77
2023/03/25 10:56:16;;;;;;;1.65;0.80;;;9.70;60.80;;;;;;5033821;28;20036;-76
2023/03/25 10:58:46;;;;;;;3.15;0.60;;;9.80;59.20;;;;;;5032216;28;20017;-76
2023/03/25 11:01:16;;;;;;;2.35;0.60;;;9.80;59.50;;;;;;5033547;28;20128;-76
2023/03/25 11:03:44;;;;;;;1.77;0.63;;;9.90;59.30;;;;;;5032011;28;20033;-75
2023/03/25 11:06:38;;;;;;;2.95;0.30;;;9.90;59.40;;;;;;5032158;28;20109;-75
2023/03/25 11:09:06;;;;;;;3.15;0.32;;;9.70;59.60;;;;;;5029888;28;20442;-75
2023/03/25 11:11:34;;;;;;;0.43;0.20;;;9.70;58.80;;;;;;5032282;28;20037;-75
2023/03/25 11:14:01;;;;;;;0.80;0.30;;;9.80;59.80;;;;;;5031946;28;20093;-76
2023/03/25 11:16:35;;;;;;;4.30;0.70;;;9.90;59.00;;;;;;5033488;28;20106;-77
2023/03/25 11:19:03;;;;;;;2.78;0.50;;;10.10;59.20;;;;;;5033473;28;20446;-76
2023/03/25 11:21:34;;;;;;;1.02;0.30;;;10.10;57.30;;;;;;5032327;28;20037;-76
2023/03/25 11:24:01;;;;;;;1.30;0.40;;;10.10;57.50;;;;;;5031772;28;20033;-76
2023/03/25 11:26:35;;;;;;;1.15;0.50;;;10.20;56.70;;;;;;5031694;28;20033;-76
2023/03/25 11:29:17;;;;;;;2.75;1.70;;;10.20;57.50;;;;;;5031558;28;20026;-76
2023/03/25 11:31:43;;;;;;;0.73;0.32;;;10.40;57.20;;;;;;5031302;28;20037;-76
2023/03/25 11:34:11;;;;;;;2.33;0.70;;;10.50;55.20;;;;;;5032945;28;20092;-76
2023/03/25 11:36:39;;;;;;;0.55;0.40;;;10.40;55.80;;;;;;5031608;28;20033;-76
2023/03/25 11:39:24;;;;;;;0.60;0.30;;;10.60;56.30;;;;;;5014839;28;20048;-77
2023/03/25 11:41:50;;;;;;;2.40;0.60;;;10.60;55.90;;;;;;5032593;28;20025;-77
2023/03/25 11:44:29;;;;;;;3.80;0.95;;;10.50;55.70;;;;;;5031686;28;20064;-74
2023/03/25 11:47:01;;;;;;;5.85;1.20;;;10.60;52.90;;;;;;5031792;28;20056;-76
2023/03/25 11:49:28;;;;;;;3.42;0.85;;;10.40;52.40;;;;;;5031477;28;20036;-77
2023/03/25 11:52:06;;;;;;;1.33;0.70;;;10.30;51.30;;;;;;5031381;28;20125;-76
2023/03/25 11:54:35;;;;;;;2.17;1.20;;;10.30;52.00;;;;;;5031694;28;20508;-76
2023/03/25 11:57:04;;;;;;;1.90;0.50;;;10.30;52.40;;;;;;5031318;28;20026;-76
2023/03/25 11:59:42;;;;;;;4.28;1.10;;;10.20;52.30;;;;;;5032191;28;20040;-76
2023/03/25 12:02:24;;;;;;;1.58;0.63;;;10.20;52.70;;;;;;5030982;28;20519;-76
2023/03/25 12:05:11;;;;;;;3.17;0.57;;;10.30;52.00;;;;;;5032695;28;20449;-75
2023/03/25 12:07:48;;;;;;;1.50;0.90;;;10.10;50.70;;;;;;5031140;28;20018;-75
2023/03/25 12:10:47;;;;;;;1.88;0.77;;;10.20;50.80;;;;;;5031482;28;20038;-75
2023/03/25 12:13:23;;;;;;;0.77;0.52;;;10.50;50.10;;;;;;5031277;28;20028;-74
2023/03/25 12:16:15;;;;;;;3.33;0.88;;;10.60;49.50;;;;;;5030877;28;20022;-76
2023/03/25 12:18:47;;;;;;;1.58;0.75;;;10.50;49.70;;;;;;5032273;28;20386;-75
2023/03/25 12:21:42;;;;;;;1.88;0.70;;;10.60;50.30;;;;;;5032350;28;20033;-77
2023/03/25 12:24:17;;;;;;;0.77;0.37;;;11.00;50.80;;;;;;5032359;28;20053;-74
2023/03/25 12:27:12;;;;;;;1.70;0.70;;;11.20;50.20;;;;;;5031291;28;20064;-76
2023/03/25 12:30:04;;;;;;;1.05;0.35;;;11.20;50.20;;;;;;5032365;28;20120;-74
2023/03/25 12:32:37;;;;;;;1.63;0.63;;;11.40;50.00;;;;;;5032358;28;20393;-85
2023/03/25 12:35:26;;;;;;;0.93;0.30;;;11.50;48.60;;;;;;5031040;28;20017;-77
2023/03/25 12:38:07;;;;;;;1.60;0.28;;;11.60;47.60;;;;;;5034914;28;20378;-75
2023/03/25 12:40:54;;;;;;;1.95;0.63;;;11.50;48.10;;;;;;5034981;28;20032;-75
2023/03/25 12:43:39;;;;;;;1.60;0.55;;;11.40;49.60;;;;;;5035236;28;20033;-75
2023/03/25 12:46:17;;;;;;;5.47;0.90;;;11.30;49.50;;;;;;5034249;28;20025;-75
2023/03/25 12:48:55;;;;;;;1.75;0.45;;;11.30;50.90;;;;;;5034711;28;20036;-75
2023/03/25 12:51:41;;;;;;;2.20;0.60;;;11.50;50.40;;;;;;5034902;28;20045;-74
2023/03/25 12:54:07;;;;;;;2.58;0.63;;;11.60;50.00;;;;;;5034477;28;20044;-76
2023/03/25 12:56:45;;;;;;;3.30;0.95;;;11.60;49.40;;;;;;5035999;28;20104;-74
2023/03/25 12:59:42;;;;;;;2.55;0.45;;;11.50;50.30;;;;;;5034626;28;20026;-76
2023/03/25 13:02:51;;;;;;;4.30;0.52;;;11.90;49.10;;;;;;5034472;28;20025;-74
2023/03/25 13:05:21;;;;;;;2.83;0.80;;;11.80;48.80;;;;;;5012375;28;20124;-75
2023/03/25 13:07:58;;;;;;;3.55;0.60;;;12.20;48.80;;;;;;5034627;28;20036;-75
2023/03/25 13:10:29;;;;;;;5.07;0.70;;;12.10;49.30;;;;;;5034345;28;20040;-75
2023/03/25 13:12:57;;;;;;;1.25;0.60;;;11.90;49.80;;;;;;5034523;28;20033;-75
2023/03/25 13:15:36;;;;;;;3.33;0.47;;;11.80;50.50;;;;;;5017326;28;20036;-74